createdAt,value
2018-06-30T00:01:00.874Z,90.80
2018-06-30T00:03:35.037Z,90.70
2018-06-30T00:06:03.877Z,90.70
2018-06-30T00:08:32.711Z,90.90
2018-06-30T00:11:01.645Z,90.80
2018-06-30T00:13:30.464Z,91.00
2018-06-30T00:15:59.312Z,91.00
2018-06-30T00:18:28.131Z,91.10
2018-06-30T00:20:56.989Z,91.20
2018-06-30T00:23:25.848Z,91.10
2018-06-30T00:25:54.707Z,91.30
2018-06-30T00:28:23.589Z,91.20
2018-06-30T00:30:52.458Z,91.10
2018-06-30T00:33:21.382Z,91.20
2018-06-30T00:35:50.264Z,91.20
2018-06-30T00:38:19.083Z,91.30
2018-06-30T00:40:47.900Z,91.30
2018-06-30T00:43:16.720Z,91.50
2018-06-30T00:45:45.593Z,91.50
2018-06-30T00:48:14.416Z,91.50
2018-06-30T00:50:43.437Z,91.60
2018-06-30T00:53:12.356Z,91.60
2018-06-30T00:55:41.188Z,91.60
2018-06-30T00:58:10.244Z,91.60
2018-06-30T01:00:40.033Z,91.50
2018-06-30T01:03:09.087Z,91.50
2018-06-30T01:05:37.925Z,91.50
2018-06-30T01:08:07.009Z,91.30
2018-06-30T01:10:35.881Z,91.30
2018-06-30T01:13:04.721Z,91.30
2018-06-30T01:15:33.556Z,91.40
2018-06-30T01:18:02.413Z,91.50
2018-06-30T01:20:31.222Z,91.30
2018-06-30T01:23:00.071Z,91.30
2018-06-30T01:25:28.908Z,91.30
2018-06-30T01:27:57.756Z,91.20
2018-06-30T01:30:26.630Z,91.10
2018-06-30T01:32:55.481Z,91.10
2018-06-30T01:35:24.362Z,91.10
2018-06-30T01:37:54.029Z,91.00
2018-06-30T01:40:22.932Z,90.70
2018-06-30T01:42:51.773Z,90.40
2018-06-30T01:45:20.700Z,90.30
2018-06-30T01:47:49.523Z,90.40
2018-06-30T01:50:18.344Z,89.40
2018-06-30T01:52:47.187Z,88.90
2018-06-30T01:55:16.025Z,88.50
2018-06-30T01:57:44.849Z,88.60
2018-06-30T02:00:13.680Z,88.10
2018-06-30T02:02:42.541Z,88.50
2018-06-30T02:05:11.381Z,87.10
2018-06-30T02:07:40.225Z,86.90
2018-06-30T02:10:09.060Z,86.80
2018-06-30T02:12:37.897Z,86.80
2018-06-30T02:15:06.989Z,86.60
2018-06-30T02:17:35.807Z,86.50
2018-06-30T02:20:04.662Z,85.80
2018-06-30T02:22:33.493Z,85.60
2018-06-30T02:25:02.378Z,85.50
2018-06-30T02:27:31.193Z,85.20
2018-06-30T02:30:00.030Z,84.90
2018-06-30T02:32:28.925Z,84.90
2018-06-30T02:34:57.899Z,84.90
2018-06-30T02:37:26.848Z,84.70
2018-06-30T02:39:56.213Z,84.80
2018-06-30T02:42:25.177Z,84.60
2018-06-30T02:44:54.090Z,84.50
2018-06-30T02:47:23.001Z,84.30
2018-06-30T02:49:51.851Z,84.20
2018-06-30T02:52:20.755Z,84.60
2018-06-30T02:54:49.633Z,84.00
2018-06-30T02:57:18.949Z,84.00
2018-06-30T02:59:48.160Z,84.00
2018-06-30T03:02:17.044Z,84.00
2018-06-30T03:04:45.905Z,84.10
2018-06-30T03:07:14.732Z,83.90
2018-06-30T03:09:43.580Z,83.50
2018-06-30T03:12:12.413Z,83.40
2018-06-30T03:14:41.245Z,84.10
2018-06-30T03:17:10.075Z,83.40
2018-06-30T03:19:38.962Z,83.50
2018-06-30T03:22:07.799Z,83.30
2018-06-30T03:24:36.624Z,83.80
2018-06-30T03:27:05.674Z,83.50
2018-06-30T03:29:34.508Z,83.20
2018-06-30T03:32:03.344Z,83.80
2018-06-30T03:34:32.162Z,83.50
2018-06-30T03:37:01.001Z,83.50
2018-06-30T03:39:29.844Z,83.70
2018-06-30T03:41:58.674Z,83.50
2018-06-30T03:44:27.537Z,83.50
2018-06-30T03:46:56.509Z,83.60
2018-06-30T03:49:25.376Z,84.00
2018-06-30T03:51:54.599Z,83.40
2018-06-30T03:54:23.521Z,83.40
2018-06-30T03:56:52.443Z,84.10
2018-06-30T03:59:21.298Z,84.30
2018-06-30T04:04:19.190Z,84.10
2018-06-30T04:06:48.034Z,82.80
2018-06-30T04:09:16.852Z,83.30
2018-06-30T04:11:45.669Z,84.00
2018-06-30T04:14:14.493Z,83.30
2018-06-30T04:16:43.329Z,83.20
2018-06-30T04:19:13.706Z,83.20
2018-06-30T04:21:44.147Z,83.40
2018-06-30T04:24:12.976Z,82.90
2018-06-30T04:26:42.561Z,83.20
2018-06-30T04:29:11.884Z,83.70
2018-06-30T04:31:40.700Z,83.30
2018-06-30T04:34:09.573Z,83.30
2018-06-30T04:36:38.405Z,82.20
2018-06-30T04:39:08.413Z,83.10
2018-06-30T04:41:37.241Z,82.30
2018-06-30T04:44:06.339Z,82.20
2018-06-30T04:46:35.170Z,82.70
2018-06-30T04:49:04.009Z,82.30
2018-06-30T04:51:32.833Z,82.30
2018-06-30T04:54:01.697Z,82.20
2018-06-30T04:56:30.528Z,82.30
2018-06-30T04:58:59.360Z,82.20
2018-06-30T05:01:28.188Z,81.40
2018-06-30T05:03:57.056Z,81.80
2018-06-30T05:06:25.931Z,81.90
2018-06-30T05:11:23.379Z,82.00
2018-06-30T05:13:52.331Z,81.40
2018-06-30T05:16:21.293Z,81.20
2018-06-30T05:18:50.194Z,80.70
2018-06-30T05:21:19.086Z,81.30
2018-06-30T05:23:47.928Z,80.50
2018-06-30T05:26:16.810Z,80.30
2018-06-30T05:28:45.661Z,81.00
2018-06-30T05:31:14.538Z,80.10
2018-06-30T05:33:43.478Z,80.70
2018-06-30T05:36:12.225Z,81.20
2018-06-30T05:38:41.064Z,80.70
2018-06-30T05:41:09.920Z,78.90
2018-06-30T05:43:38.760Z,79.50
2018-06-30T05:48:42.773Z,80.20
2018-06-30T05:51:11.636Z,79.40
2018-06-30T05:53:40.476Z,79.10
2018-06-30T05:56:09.345Z,78.20
2018-06-30T05:58:38.191Z,79.80
2018-06-30T06:01:07.480Z,77.80
2018-06-30T06:03:36.668Z,78.20
2018-06-30T06:06:05.506Z,77.30
2018-06-30T06:08:34.438Z,77.40
2018-06-30T06:11:03.288Z,75.50
2018-06-30T06:13:32.140Z,76.60
2018-06-30T06:16:01.004Z,76.90
2018-06-30T06:18:29.849Z,76.90
2018-06-30T06:20:58.825Z,76.20
2018-06-30T06:23:27.747Z,75.80
2018-06-30T06:25:56.715Z,74.90
2018-06-30T06:28:25.622Z,74.00
2018-06-30T06:30:54.551Z,74.40
2018-06-30T06:33:23.442Z,73.50
2018-06-30T06:35:52.333Z,72.80
2018-06-30T06:38:21.425Z,72.80
2018-06-30T06:40:50.336Z,72.60
2018-06-30T06:43:19.201Z,74.20
2018-06-30T06:45:48.073Z,74.10
2018-06-30T06:48:17.001Z,72.90
2018-06-30T06:50:45.824Z,74.80
2018-06-30T06:53:14.658Z,73.40
2018-06-30T06:55:43.488Z,73.00
2018-06-30T06:58:12.336Z,73.80
2018-06-30T07:03:09.876Z,73.50
2018-06-30T07:05:38.654Z,72.80
2018-06-30T07:08:07.489Z,72.20
2018-06-30T07:10:36.458Z,71.50
2018-06-30T07:13:05.349Z,70.30
2018-06-30T07:15:34.259Z,70.20
2018-06-30T07:18:03.131Z,69.70
2018-06-30T07:20:31.961Z,70.30
2018-06-30T07:23:00.851Z,70.00
2018-06-30T07:25:29.986Z,70.60
2018-06-30T07:27:58.780Z,70.10
2018-06-30T07:30:27.776Z,71.10
2018-06-30T07:32:56.727Z,68.90
2018-06-30T07:35:25.817Z,71.90
2018-06-30T07:37:54.770Z,69.60
2018-06-30T07:40:23.778Z,68.40
2018-06-30T07:42:52.694Z,68.40
2018-06-30T07:45:21.599Z,70.10
2018-06-30T07:47:50.524Z,67.50
2018-06-30T07:50:19.489Z,69.60
2018-06-30T07:52:48.370Z,68.50
2018-06-30T07:55:17.197Z,69.20
2018-06-30T07:57:46.033Z,69.80
2018-06-30T08:00:14.904Z,67.30
2018-06-30T08:02:43.740Z,68.00
2018-06-30T08:05:12.560Z,68.80
2018-06-30T08:07:41.389Z,69.00
2018-06-30T08:10:10.280Z,67.10
2018-06-30T08:12:39.908Z,69.20
2018-06-30T08:15:08.936Z,67.10
2018-06-30T08:17:37.845Z,72.60
2018-06-30T08:20:07.167Z,66.00
2018-06-30T08:22:36.203Z,66.80
2018-06-30T08:25:06.393Z,65.00
2018-06-30T08:27:35.197Z,66.10
2018-06-30T08:30:04.720Z,65.80
2018-06-30T08:32:33.617Z,64.50
2018-06-30T08:35:02.453Z,65.00
2018-06-30T08:37:31.286Z,64.80
2018-06-30T08:40:00.206Z,65.30
2018-06-30T08:42:29.112Z,66.70
2018-06-30T08:44:58.004Z,66.00
2018-06-30T08:47:26.873Z,66.60
2018-06-30T08:49:55.899Z,65.00
2018-06-30T08:52:24.870Z,76.20
2018-06-30T08:54:53.825Z,68.20
2018-06-30T08:57:23.063Z,66.90
2018-06-30T08:59:52.988Z,66.30
2018-06-30T09:02:22.072Z,65.70
2018-06-30T09:04:50.956Z,68.70
2018-06-30T09:07:19.890Z,68.40
2018-06-30T09:09:48.684Z,75.70
2018-06-30T09:12:17.566Z,70.20
2018-06-30T09:14:46.389Z,67.50
2018-06-30T09:17:15.319Z,65.80
2018-06-30T09:19:44.201Z,65.50
2018-06-30T09:22:13.049Z,65.80
2018-06-30T09:24:41.970Z,64.40
2018-06-30T09:27:11.285Z,67.70
2018-06-30T09:32:09.013Z,65.50
2018-06-30T09:34:37.831Z,65.30
2018-06-30T09:37:06.781Z,67.60
2018-06-30T09:39:35.621Z,67.90
2018-06-30T09:42:04.515Z,68.70
2018-06-30T09:44:33.508Z,67.80
2018-06-30T09:47:02.210Z,66.00
2018-06-30T09:49:31.080Z,67.30
2018-06-30T09:51:59.929Z,72.90
2018-06-30T09:54:28.829Z,76.20
2018-06-30T09:56:57.672Z,71.00
2018-06-30T09:59:26.525Z,70.80
2018-06-30T10:01:55.386Z,70.10
2018-06-30T10:04:24.229Z,68.80
2018-06-30T10:06:53.098Z,68.00
2018-06-30T10:09:21.924Z,63.30
2018-06-30T10:11:50.829Z,63.70
2018-06-30T10:14:19.661Z,68.50
2018-06-30T10:16:48.527Z,63.80
2018-06-30T10:21:46.091Z,65.20
2018-06-30T10:24:14.982Z,65.20
2018-06-30T10:26:43.929Z,64.50
2018-06-30T10:29:12.847Z,64.00
2018-06-30T10:31:41.759Z,70.80
2018-06-30T10:34:10.801Z,69.30
2018-06-30T10:36:40.715Z,70.20
2018-06-30T10:39:11.092Z,64.90
2018-06-30T10:41:40.008Z,62.60
2018-06-30T10:44:09.168Z,63.30
2018-06-30T10:46:38.381Z,62.20
2018-06-30T10:49:07.736Z,64.70
2018-06-30T10:51:37.005Z,66.00
2018-06-30T10:54:06.197Z,64.60
2018-06-30T10:56:35.098Z,58.90
2018-06-30T10:59:04.008Z,60.10
2018-06-30T11:01:32.850Z,62.00
2018-06-30T11:04:01.756Z,62.30
2018-06-30T11:06:30.628Z,61.00
2018-06-30T11:08:59.697Z,65.50
2018-06-30T11:13:57.112Z,62.50
2018-06-30T11:16:25.978Z,60.60
2018-06-30T11:18:54.804Z,76.40
2018-06-30T11:21:23.644Z,62.10
2018-06-30T11:23:52.587Z,65.80
2018-06-30T11:26:22.587Z,61.60
2018-06-30T11:28:51.414Z,65.00
2018-06-30T11:31:20.270Z,61.50
2018-06-30T11:33:49.189Z,60.30
2018-06-30T11:36:18.228Z,59.20
2018-06-30T11:38:47.694Z,60.00
2018-06-30T11:41:16.656Z,61.60
2018-06-30T11:43:45.608Z,60.70
2018-06-30T11:46:15.772Z,59.80
2018-06-30T11:48:44.755Z,66.00
2018-06-30T11:51:13.737Z,65.00
2018-06-30T11:56:11.424Z,75.20
2018-06-30T11:58:40.432Z,60.20
2018-06-30T12:01:09.498Z,69.20
2018-06-30T12:03:38.517Z,60.80
2018-06-30T12:06:07.553Z,57.10
2018-06-30T12:08:36.784Z,58.50
2018-06-30T12:11:05.719Z,53.40
2018-06-30T12:13:34.629Z,55.80
2018-06-30T12:16:03.510Z,55.40
2018-06-30T12:18:32.498Z,71.10
2018-06-30T12:21:01.338Z,60.60
2018-06-30T12:23:30.214Z,56.30
2018-06-30T12:25:59.039Z,58.00
2018-06-30T12:28:27.868Z,55.40
2018-06-30T12:30:56.720Z,55.20
2018-06-30T12:33:25.804Z,54.20
2018-06-30T12:35:54.692Z,53.50
2018-06-30T12:38:23.757Z,52.70
2018-06-30T12:40:52.545Z,51.40
2018-06-30T12:43:21.604Z,50.40
2018-06-30T12:45:50.457Z,54.30
2018-06-30T12:48:19.427Z,54.40
2018-06-30T12:50:48.402Z,53.00
2018-06-30T12:53:17.218Z,56.40
2018-06-30T12:55:46.108Z,55.60
2018-06-30T12:58:15.125Z,55.30
2018-06-30T13:00:44.138Z,65.70
2018-06-30T13:05:41.549Z,67.10
2018-06-30T13:08:10.376Z,66.00
2018-06-30T13:10:39.340Z,57.50
2018-06-30T13:13:08.294Z,57.40
2018-06-30T13:15:37.196Z,55.00
2018-06-30T13:18:06.481Z,56.90
2018-06-30T13:20:35.528Z,54.60
2018-06-30T13:23:05.076Z,54.30
2018-06-30T13:25:33.970Z,55.60
2018-06-30T13:28:02.902Z,57.10
2018-06-30T13:30:31.786Z,56.90
2018-06-30T13:33:00.709Z,54.50
2018-06-30T13:35:29.652Z,52.90
2018-06-30T13:37:59.172Z,51.50
2018-06-30T13:40:38.883Z,71.10
2018-06-30T13:43:08.396Z,57.10
2018-06-30T13:45:37.254Z,56.70
2018-06-30T13:48:06.197Z,55.90
2018-06-30T13:50:35.041Z,57.10
2018-06-30T13:53:03.933Z,55.10
2018-06-30T13:55:32.917Z,55.30
2018-06-30T13:58:01.774Z,56.60
2018-06-30T14:00:30.716Z,59.00
2018-06-30T14:02:59.805Z,58.70
2018-06-30T14:05:28.685Z,51.90
2018-06-30T14:07:57.554Z,59.60
2018-06-30T14:10:26.885Z,56.60
2018-06-30T14:12:55.812Z,56.00
2018-06-30T14:15:24.677Z,54.40
2018-06-30T14:17:53.889Z,53.90
2018-06-30T14:20:23.509Z,54.20
2018-06-30T14:22:53.425Z,61.90
2018-06-30T14:25:22.790Z,56.00
2018-06-30T14:27:51.713Z,57.80
2018-06-30T14:30:20.775Z,57.70
2018-06-30T14:32:49.694Z,55.20
2018-06-30T14:35:18.505Z,54.40
2018-06-30T14:37:47.456Z,54.20
2018-06-30T14:40:16.405Z,57.10
2018-06-30T14:42:45.361Z,59.20
2018-06-30T14:45:14.304Z,56.00
2018-06-30T14:47:43.172Z,53.50
2018-06-30T14:50:12.046Z,53.40
2018-06-30T14:52:40.909Z,51.90
2018-06-30T14:55:09.883Z,53.80
2018-06-30T14:57:38.681Z,55.50
2018-06-30T15:00:08.381Z,53.80
2018-06-30T15:02:37.338Z,53.20
2018-06-30T15:05:06.852Z,56.40
2018-06-30T15:07:35.793Z,55.30
2018-06-30T15:10:05.338Z,53.10
2018-06-30T15:12:34.197Z,53.00
2018-06-30T15:15:03.186Z,53.90
2018-06-30T15:17:32.061Z,59.10
2018-06-30T15:20:00.972Z,52.80
2018-06-30T15:22:29.911Z,52.10
2018-06-30T15:24:58.763Z,55.00
2018-06-30T15:27:27.905Z,54.00
2018-06-30T15:29:56.935Z,53.20
2018-06-30T15:32:25.932Z,74.50
2018-06-30T15:34:54.962Z,69.60
2018-06-30T15:37:23.932Z,57.00
2018-06-30T15:39:52.942Z,67.20
2018-06-30T15:42:21.910Z,62.70
2018-06-30T15:44:50.851Z,55.80
2018-06-30T15:47:20.102Z,53.50
2018-06-30T15:49:48.914Z,57.80
2018-06-30T15:52:17.776Z,55.20
2018-06-30T15:54:46.904Z,69.60
2018-06-30T15:57:15.780Z,57.40
2018-06-30T15:59:44.718Z,54.00
2018-06-30T16:02:13.723Z,72.80
2018-06-30T16:04:42.886Z,55.50
2018-06-30T16:07:11.734Z,61.00
2018-06-30T16:09:40.621Z,55.70
2018-06-30T16:12:09.429Z,69.40
2018-06-30T16:14:38.830Z,58.60
2018-06-30T16:17:07.684Z,68.70
2018-06-30T16:19:36.492Z,69.60
2018-06-30T16:22:05.448Z,79.10
2018-06-30T16:24:34.302Z,64.20
2018-06-30T16:27:03.133Z,60.30
2018-06-30T16:29:31.955Z,77.50
2018-06-30T16:32:01.240Z,61.70
2018-06-30T16:34:30.105Z,64.50
2018-06-30T16:36:59.074Z,68.70
2018-06-30T16:39:27.960Z,57.20
2018-06-30T16:41:56.809Z,66.10
2018-06-30T16:44:25.689Z,55.00
2018-06-30T16:46:54.596Z,78.10
2018-06-30T16:49:23.588Z,78.90
2018-06-30T16:51:52.509Z,62.70
2018-06-30T16:54:21.454Z,64.60
2018-06-30T16:59:18.989Z,52.90
2018-06-30T17:01:47.852Z,54.80
2018-06-30T17:04:16.717Z,53.90
2018-06-30T17:06:45.669Z,53.10
2018-06-30T17:09:15.417Z,54.90
2018-06-30T17:11:44.265Z,61.40
2018-06-30T17:14:13.145Z,75.10
2018-06-30T17:16:41.980Z,67.60
2018-06-30T17:19:10.827Z,58.80
2018-06-30T17:21:39.702Z,80.00
2018-06-30T17:24:08.735Z,65.40
2018-06-30T17:26:37.621Z,82.90
2018-06-30T17:29:06.515Z,75.80
2018-06-30T17:31:35.354Z,73.90
2018-06-30T17:34:04.285Z,79.50
2018-06-30T17:36:33.216Z,80.50
2018-06-30T17:39:02.181Z,83.30
2018-06-30T17:41:31.031Z,74.70
2018-06-30T17:43:59.894Z,83.40
2018-06-30T17:46:28.773Z,57.50
2018-06-30T17:48:57.941Z,56.60
2018-06-30T17:51:26.881Z,63.10
2018-06-30T17:53:55.883Z,78.30
2018-06-30T17:56:24.848Z,58.40
2018-06-30T17:58:53.780Z,60.30
2018-06-30T18:01:22.824Z,80.80
2018-06-30T18:03:51.988Z,82.90
2018-06-30T18:08:49.973Z,70.00
2018-06-30T18:11:18.899Z,74.60
2018-06-30T18:13:47.786Z,63.70
2018-06-30T18:16:16.623Z,58.10
2018-06-30T18:18:45.473Z,57.60
2018-06-30T18:21:14.297Z,57.30
2018-06-30T18:23:43.198Z,68.80
2018-06-30T18:26:12.057Z,80.20
2018-06-30T18:28:40.900Z,58.70
2018-06-30T18:31:09.722Z,61.50
2018-06-30T18:38:35.576Z,59.40
2018-06-30T18:41:04.503Z,75.00
2018-06-30T18:43:33.321Z,65.00
2018-06-30T18:48:30.782Z,58.30
2018-06-30T18:50:59.692Z,56.20
2018-06-30T18:53:28.505Z,56.30
2018-06-30T18:55:57.406Z,58.90
2018-06-30T18:58:26.300Z,59.60
2018-06-30T19:00:55.144Z,56.70
2018-06-30T19:05:52.881Z,58.90
2018-06-30T19:08:21.833Z,60.50
2018-06-30T19:10:50.805Z,63.10
2018-06-30T19:13:19.681Z,59.90
2018-06-30T19:15:48.566Z,58.50
2018-06-30T19:18:17.401Z,58.70
2018-06-30T19:20:46.280Z,58.40
2018-06-30T19:23:15.147Z,71.70
2018-06-30T19:25:44.000Z,57.60
2018-06-30T19:28:12.880Z,57.40
2018-06-30T19:30:41.739Z,57.10
2018-06-30T19:33:10.643Z,56.80
2018-06-30T19:35:39.513Z,56.80
2018-06-30T19:38:08.452Z,60.40
2018-06-30T19:40:37.312Z,57.10
2018-06-30T19:43:06.167Z,57.00
2018-06-30T19:45:35.048Z,56.90
2018-06-30T19:48:03.896Z,58.30
2018-06-30T19:50:32.785Z,56.80
2018-06-30T19:53:01.716Z,57.90
2018-06-30T19:55:30.583Z,56.80
2018-06-30T19:57:59.400Z,56.40
2018-06-30T20:00:28.289Z,56.70
2018-06-30T20:02:57.178Z,57.30
2018-06-30T20:05:26.140Z,55.60
2018-06-30T20:07:55.902Z,56.00
2018-06-30T20:10:25.717Z,55.50
2018-06-30T20:12:54.630Z,55.90
2018-06-30T20:15:23.509Z,55.10
2018-06-30T20:17:52.433Z,54.90
2018-06-30T20:20:21.440Z,54.90
2018-06-30T20:22:50.193Z,55.20
2018-06-30T20:25:19.035Z,55.30
2018-06-30T20:27:47.869Z,55.30
2018-06-30T20:30:16.727Z,55.50
2018-06-30T20:32:45.561Z,55.50
2018-06-30T20:35:14.420Z,55.50
2018-06-30T20:37:43.277Z,55.70
2018-06-30T20:40:12.184Z,55.80
2018-06-30T20:42:41.112Z,56.30
2018-06-30T20:45:10.157Z,56.10
2018-06-30T20:47:38.926Z,56.10
2018-06-30T20:50:07.744Z,55.80
2018-06-30T20:52:36.604Z,57.30
2018-06-30T20:55:05.501Z,56.20
2018-06-30T20:57:34.354Z,57.00
2018-06-30T21:00:03.216Z,56.80
2018-06-30T21:02:32.073Z,56.80
2018-06-30T21:05:00.947Z,56.70
2018-06-30T21:07:29.811Z,57.00
2018-06-30T21:09:58.645Z,56.90
2018-06-30T21:12:27.495Z,57.00
2018-06-30T21:14:56.385Z,57.20
2018-06-30T21:17:25.260Z,57.30
2018-06-30T21:22:22.782Z,57.50
2018-06-30T21:24:51.702Z,57.70
2018-06-30T21:27:20.662Z,57.90
2018-06-30T21:29:49.540Z,57.60
2018-06-30T21:32:18.573Z,58.70
2018-06-30T21:34:47.429Z,58.20
2018-06-30T21:37:16.288Z,58.50
2018-06-30T21:39:45.149Z,58.40
2018-06-30T21:42:14.053Z,58.40
2018-06-30T21:44:42.905Z,58.40
2018-06-30T21:47:11.782Z,58.40
2018-06-30T21:49:40.698Z,58.80
2018-06-30T21:52:09.524Z,58.80
2018-06-30T21:54:38.389Z,58.80
2018-06-30T21:57:07.351Z,59.10
2018-06-30T21:59:36.209Z,59.40
2018-06-30T22:04:37.020Z,59.80
2018-06-30T22:07:05.909Z,59.90
2018-06-30T22:09:34.733Z,60.00
2018-06-30T22:12:03.604Z,61.70
2018-06-30T22:14:32.465Z,60.20
2018-06-30T22:17:01.306Z,60.00
2018-06-30T22:21:58.767Z,60.40
2018-06-30T22:24:27.608Z,60.90
2018-06-30T22:26:56.464Z,60.70
2018-06-30T22:29:25.342Z,60.70
2018-06-30T22:31:54.223Z,60.80
2018-06-30T22:34:23.113Z,60.80
2018-06-30T22:36:51.987Z,61.30
2018-06-30T22:39:32.370Z,61.70
2018-06-30T22:42:01.224Z,61.70
2018-06-30T22:44:30.162Z,61.70
2018-06-30T22:46:59.072Z,61.50
2018-06-30T22:49:27.928Z,61.30
2018-06-30T22:51:56.785Z,61.40
2018-06-30T22:54:26.143Z,61.70
2018-06-30T22:56:55.059Z,62.10
2018-06-30T22:59:24.025Z,62.50
2018-06-30T23:01:52.927Z,62.40
2018-06-30T23:04:21.835Z,62.80
2018-06-30T23:06:50.733Z,63.40
2018-06-30T23:09:19.616Z,62.80
2018-06-30T23:11:48.521Z,62.80
2018-06-30T23:14:17.373Z,62.70
2018-06-30T23:16:46.422Z,63.20
2018-06-30T23:19:15.227Z,63.30
2018-06-30T23:21:44.152Z,63.50
2018-06-30T23:24:13.003Z,63.60
2018-06-30T23:26:41.860Z,63.50
2018-06-30T23:29:10.737Z,64.10
2018-06-30T23:31:39.584Z,64.40
2018-06-30T23:34:08.436Z,64.60
2018-06-30T23:36:37.289Z,64.60
2018-06-30T23:39:08.548Z,65.00
2018-06-30T23:41:37.386Z,65.00
2018-06-30T23:44:06.273Z,64.90
2018-06-30T23:46:35.229Z,65.20
2018-06-30T23:49:04.120Z,65.40
2018-06-30T23:51:32.964Z,65.30
2018-06-30T23:54:01.807Z,65.80
2018-06-30T23:56:30.876Z,65.60
2018-06-30T23:58:59.729Z,65.80
